METAR AND TAF INFORMATION
METAR FOR PASA
ADDS - METARS form results

(2116 UTC 29 January 2020)
Data provider http://aviationweather.gov/metar/data/
 
METAR text: PASA 292056Z AUTO 34010KT 10SM CLR M20/M23 A2982 RMK AO2 SLP100 T12001233 58009 FZRANO
Conditions at: PASA (SAVOONGA , AK, US) observed 2056 UTC 29 January 2020
Temperature: -20.0°C (-4°F)
Dewpoint: -23.3°C (-10°F) [RH = 75%]
Pressure (altimeter): 29.82 inches Hg (1009.9 mb)
[Sea-level pressure: 1010.0 mb]
Winds: from the NNW (340 degrees) at 12 MPH (10 knots; 5.1 m/s)
Visibility: 10 or more miles (16+ km)
Ceiling: at least 12,000 feet AGL
Clouds: sky clear below 12,000 feet AGL
Weather: automated observation with no human augmentation;
there may or may not be significant weather present at this time

 AIRPORT MAP

 RUNWAY INFORMATION
Runway 05 Runway length 4400 ft Runway width 100 ft
Runway elevation 52 ft Runway displaced threshold 0 ft Runway heading 60
Runway 23 Runway length 4400 ft Runway width 100 ft
Runway elevation 50 ft Runway displaced threshold 0 ft Runway heading 240

 AIRPORT FREQUENCIES
Type AWOS Name AWOS 3 Frequency 121.3 MHZ
Type CTAF Name CTAF Frequency 122.7 MHZ
Type FSS Name NOME RDO Frequency 122.3 MHZ

 AIRPORT NEAR NAVIGATION AIDS
Type VOR-DME Name Kukuliak Frequency 117300 KHZ



We are a FlightSim virtual group and are in no way affiliated with RavnAir Group.

Powered by Virtual Airlines Manager [v2.6.2]